Terminal Aerodrome Forecast
Issued by NWS Tampa Bay Area, FL

Current Version | Previous Version | Text Only | Print | Product List | Glossary On
Versions: 1 2 3 4 5 6 7 8 9 10 11 12 13 14 15 16
000
FTUS42 KTBW 301125
TAFFMY
TAF
KFMY 301125Z 3012/0112 12006KT P6SM FEW250
     FM301500 13009KT P6SM FEW250
     FM302000 18010KT P6SM FEW050 SCT250
     FM010100 VRB06KT P6SM SCT050
     FM010400 11004KT P6SM FEW200=

USA.gov is the U.S. government's official web portal to all federal, state and local government web resources and services.